Time;durP1;ratioP1;P1;durP2;ratioP2;P2;SDS_P1;SDS_P2;PMS_P1;PMS_P2;Temp;Humidity;BMP_temperature;BMP_pressure;BME280_temperature;BME280_humidity;BME280_pressure;Samples;Min_cycle;Max_cycle;Signal;HPM_P1;HPM_P2
2023/11/06 00:01:55;;;;;;;3.05;1.65;;;;;;;;;;4286956;33;316639;-83
2023/11/06 00:04:22;;;;;;;9.43;2.05;;;;;;;;;;4296964;33;344500;-85
2023/11/06 00:06:48;;;;;;;7.25;1.75;;;;;;;;;;4284853;33;317164;-83
2023/11/06 00:09:18;;;;;;;5.07;2.10;;;;;;;;;;4303914;33;317135;-81
2023/11/06 00:11:45;;;;;;;15.88;3.20;;;;;;;;;;4292666;33;317053;-81
2023/11/06 00:14:11;;;;;;;7.70;2.67;;;;;;;;;;4300093;33;337184;-81
2023/11/06 00:16:38;;;;;;;6.85;2.60;;;;;;;;;;4271821;33;317024;-83
2023/11/06 00:19:05;;;;;;;11.95;2.90;;;;;;;;;;4288512;33;317318;-83
2023/11/06 00:21:32;;;;;;;7.75;2.85;;;;;;;;;;4277332;33;318292;-81
2023/11/06 00:23:58;;;;;;;7.90;3.12;;;;;;;;;;4287476;33;325711;-83
2023/11/06 00:26:27;;;;;;;9.57;3.50;;;;;;;;;;4287146;33;316942;-82
2023/11/06 00:28:54;;;;;;;8.23;2.70;;;;;;;;;;4271983;33;317719;-82
2023/11/06 00:31:21;;;;;;;10.90;2.92;;;;;;;;;;4286657;33;316861;-81
2023/11/06 00:33:48;;;;;;;7.90;2.33;;;;;;;;;;4277375;33;318678;-82
2023/11/06 00:36:18;;;;;;;7.00;1.90;;;;;;;;;;4287769;33;324541;-82
2023/11/06 00:38:45;;;;;;;7.77;2.63;;;;;;;;;;4270530;33;316932;-84
2023/11/06 00:41:12;;;;;;;9.88;2.75;;;;;;;;;;4287214;33;317010;-81
2023/11/06 00:43:40;;;;;;;8.93;3.77;;;;;;;;;;4278372;33;317146;-82
2023/11/06 00:46:07;;;;;;;10.68;2.78;;;;;;;;;;4288085;33;317981;-83
2023/11/06 00:48:34;;;;;;;9.00;2.60;;;;;;;;;;4277542;33;318641;-82
2023/11/06 00:51:01;;;;;;;7.73;2.50;;;;;;;;;;4279994;33;316533;-83
2023/11/06 00:53:28;;;;;;;6.30;2.50;;;;;;;;;;4288449;33;316950;-82
2023/11/06 00:55:54;;;;;;;10.17;2.43;;;;;;;;;;4277979;33;317265;-82
2023/11/06 00:58:21;;;;;;;5.13;2.70;;;;;;;;;;4288312;33;318713;-83
2023/11/06 01:00:50;;;;;;;7.57;2.57;;;;;;;;;;4270082;33;317174;-82
2023/11/06 01:03:16;;;;;;;9.70;3.12;;;;;;;;;;4288849;33;317506;-83
2023/11/06 01:05:43;;;;;;;5.77;3.17;;;;;;;;;;4278106;33;317183;-84
2023/11/06 01:08:10;;;;;;;10.82;3.58;;;;;;;;;;4286444;33;317727;-84
2023/11/06 01:10:37;;;;;;;13.27;3.33;;;;;;;;;;4274204;33;318387;-83
2023/11/06 01:13:04;;;;;;;7.23;2.60;;;;;;;;;;4286113;33;318290;-82
2023/11/06 01:15:32;;;;;;;9.93;3.97;;;;;;;;;;4281989;33;317286;-83
2023/11/06 01:18:00;;;;;;;11.45;5.35;;;;;;;;;;4297233;33;317304;-85
2023/11/06 01:20:27;;;;;;;6.17;3.00;;;;;;;;;;4288435;33;318763;-82
2023/11/06 01:22:54;;;;;;;15.27;4.20;;;;;;;;;;4271169;33;317114;-81
2023/11/06 01:25:21;;;;;;;9.23;3.62;;;;;;;;;;4288471;33;318318;-82
2023/11/06 01:27:48;;;;;;;8.82;3.22;;;;;;;;;;4278885;33;324467;-82
2023/11/06 01:30:15;;;;;;;10.23;4.33;;;;;;;;;;4295587;33;317572;-83
2023/11/06 01:32:41;;;;;;;10.37;2.73;;;;;;;;;;4283204;33;328126;-83
2023/11/06 01:35:11;;;;;;;7.35;2.55;;;;;;;;;;4302708;33;317897;-84
2023/11/06 01:37:38;;;;;;;5.75;2.58;;;;;;;;;;4278327;33;317432;-81
2023/11/06 01:40:10;;;;;;;4.60;2.10;;;;;;;;;;4284209;33;316601;-81
2023/11/06 01:42:37;;;;;;;7.30;2.27;;;;;;;;;;4264208;33;352583;-81
2023/11/06 01:45:05;;;;;;;5.12;2.42;;;;;;;;;;4289202;33;317113;-83
2023/11/06 01:47:32;;;;;;;6.82;2.50;;;;;;;;;;4278162;33;317533;-82
2023/11/06 01:49:59;;;;;;;6.30;2.57;;;;;;;;;;4289479;33;317358;-80
2023/11/06 01:52:29;;;;;;;8.07;2.00;;;;;;;;;;4292001;33;317046;-80
2023/11/06 01:54:56;;;;;;;8.52;2.50;;;;;;;;;;4274958;33;317776;-82
2023/11/06 01:57:23;;;;;;;4.77;2.53;;;;;;;;;;4287435;33;317430;-83
2023/11/06 01:59:50;;;;;;;5.33;2.30;;;;;;;;;;4277529;33;317240;-80
2023/11/06 02:02:20;;;;;;;6.43;2.73;;;;;;;;;;4286753;33;316836;-82
2023/11/06 02:04:49;;;;;;;8.37;2.97;;;;;;;;;;4256080;33;317077;-82
2023/11/06 02:07:16;;;;;;;9.77;3.83;;;;;;;;;;4286789;33;317268;-83
2023/11/06 02:09:45;;;;;;;7.87;3.13;;;;;;;;;;4275991;33;317465;-84
2023/11/06 02:12:12;;;;;;;5.47;2.83;;;;;;;;;;4285549;33;317644;-82
2023/11/06 02:14:52;;;;;;;4.37;2.70;;;;;;;;;;4267455;33;317650;-82
2023/11/06 02:17:19;;;;;;;10.82;2.80;;;;;;;;;;4285083;33;317208;-83
2023/11/06 02:19:46;;;;;;;10.15;3.28;;;;;;;;;;4275481;33;317644;-83
2023/11/06 02:22:17;;;;;;;8.47;4.33;;;;;;;;;;4285030;33;318209;-80
2023/11/06 02:24:46;;;;;;;8.23;3.65;;;;;;;;;;4270389;33;317155;-82
2023/11/06 02:27:12;;;;;;;10.27;3.43;;;;;;;;;;4286298;33;317432;-82
2023/11/06 02:29:40;;;;;;;6.30;3.50;;;;;;;;;;4270341;33;356983;-84
2023/11/06 02:32:07;;;;;;;5.80;3.20;;;;;;;;;;4290296;33;317273;-81
2023/11/06 02:34:36;;;;;;;5.77;3.20;;;;;;;;;;4290646;33;336537;-84
2023/11/06 02:37:03;;;;;;;6.47;2.93;;;;;;;;;;4279484;33;317253;-83
2023/11/06 02:39:33;;;;;;;4.37;2.57;;;;;;;;;;4287164;33;317368;-84
2023/11/06 02:42:01;;;;;;;4.90;2.57;;;;;;;;;;4282713;33;417273;-85
2023/11/06 02:44:28;;;;;;;4.50;2.70;;;;;;;;;;4284669;33;317223;-84
2023/11/06 02:46:55;;;;;;;9.00;3.97;;;;;;;;;;4268275;33;317338;-82
2023/11/06 02:49:23;;;;;;;6.20;3.23;;;;;;;;;;4288592;33;348469;-81
2023/11/06 02:51:49;;;;;;;7.33;3.43;;;;;;;;;;4291021;33;317085;-82
2023/11/06 02:54:16;;;;;;;9.10;4.33;;;;;;;;;;4300039;33;317798;-80
2023/11/06 02:56:43;;;;;;;12.37;4.17;;;;;;;;;;4282791;33;339642;-81
2023/11/06 02:59:10;;;;;;;5.80;3.20;;;;;;;;;;4300853;33;318317;-81
2023/11/06 03:01:36;;;;;;;6.43;3.80;;;;;;;;;;4290122;33;317026;-83
2023/11/06 03:04:03;;;;;;;10.50;3.70;;;;;;;;;;4300900;33;317381;-82
2023/11/06 03:06:31;;;;;;;7.57;3.73;;;;;;;;;;4300032;33;318329;-81
2023/11/06 03:08:57;;;;;;;7.57;4.30;;;;;;;;;;4281369;33;418320;-81
2023/11/06 03:11:24;;;;;;;11.07;4.57;;;;;;;;;;4290970;33;317706;-81
2023/11/06 03:13:51;;;;;;;11.53;3.93;;;;;;;;;;4275606;33;318844;-82
2023/11/06 03:16:19;;;;;;;11.53;4.10;;;;;;;;;;4286591;33;318617;-82
2023/11/06 03:18:46;;;;;;;7.07;3.17;;;;;;;;;;4268956;33;319676;-81
2023/11/06 03:21:12;;;;;;;9.67;4.47;;;;;;;;;;4274410;33;316715;-81
2023/11/06 03:23:39;;;;;;;10.00;5.17;;;;;;;;;;4275586;33;317691;-83
2023/11/06 03:26:06;;;;;;;10.10;4.43;;;;;;;;;;4297066;33;318436;-81
2023/11/06 03:28:34;;;;;;;8.43;3.20;;;;;;;;;;4275454;33;378430;-81
2023/11/06 03:31:01;;;;;;;6.93;2.67;;;;;;;;;;4281508;33;317328;-81
2023/11/06 03:33:29;;;;;;;12.03;3.17;;;;;;;;;;4285926;33;317722;-81
2023/11/06 03:35:56;;;;;;;8.77;3.07;;;;;;;;;;4275038;33;346755;-81
2023/11/06 03:38:22;;;;;;;6.73;3.57;;;;;;;;;;4283906;33;317953;-81
2023/11/06 03:40:49;;;;;;;11.53;3.60;;;;;;;;;;4268024;33;317226;-81
2023/11/06 03:43:16;;;;;;;8.30;4.00;;;;;;;;;;4285507;33;329127;-81
2023/11/06 03:45:43;;;;;;;9.90;4.10;;;;;;;;;;4279777;33;317777;-83
2023/11/06 03:48:09;;;;;;;14.53;4.17;;;;;;;;;;4289690;33;318047;-81
2023/11/06 03:50:42;;;;;;;9.53;4.47;;;;;;;;;;4275191;33;318555;-80
2023/11/06 03:53:09;;;;;;;7.40;4.13;;;;;;;;;;4289160;33;316808;-80
2023/11/06 03:55:36;;;;;;;9.87;4.07;;;;;;;;;;4279446;33;317772;-80
2023/11/06 03:58:03;;;;;;;15.73;4.23;;;;;;;;;;4288871;33;327612;-81
2023/11/06 04:00:30;;;;;;;7.13;3.30;;;;;;;;;;4280840;33;318468;-85
2023/11/06 04:02:57;;;;;;;7.03;3.20;;;;;;;;;;4261412;33;416585;-85
2023/11/06 04:05:24;;;;;;;13.37;3.30;;;;;;;;;;4287890;33;317436;-81
2023/11/06 04:07:52;;;;;;;17.70;4.47;;;;;;;;;;4279645;33;318768;-80
2023/11/06 04:10:19;;;;;;;15.33;4.50;;;;;;;;;;4290360;33;318902;-80
2023/11/06 04:12:46;;;;;;;13.07;3.20;;;;;;;;;;4279133;33;319639;-81
2023/11/06 04:15:12;;;;;;;9.53;2.67;;;;;;;;;;4271402;33;317768;-80
2023/11/06 04:17:39;;;;;;;9.30;3.03;;;;;;;;;;4288247;33;317126;-81
2023/11/06 04:20:10;;;;;;;10.47;3.10;;;;;;;;;;4278894;33;317747;-80
2023/11/06 04:22:37;;;;;;;6.23;2.73;;;;;;;;;;4289070;33;339237;-80
2023/11/06 04:25:06;;;;;;;9.43;2.70;;;;;;;;;;4273334;33;317461;-81
2023/11/06 04:27:32;;;;;;;16.47;2.80;;;;;;;;;;4288912;33;317160;-81
2023/11/06 04:29:59;;;;;;;11.77;3.10;;;;;;;;;;4264863;33;318883;-81
2023/11/06 04:32:26;;;;;;;13.53;3.27;;;;;;;;;;4285962;33;318740;-81
2023/11/06 04:34:53;;;;;;;8.10;3.23;;;;;;;;;;4272751;33;318917;-81
2023/11/06 04:37:21;;;;;;;14.40;3.00;;;;;;;;;;4288745;33;317210;-81
2023/11/06 04:39:48;;;;;;;9.80;3.00;;;;;;;;;;4279649;33;317806;-86
2023/11/06 04:42:18;;;;;;;7.97;3.27;;;;;;;;;;4286219;33;317354;-82
2023/11/06 04:44:44;;;;;;;8.07;4.00;;;;;;;;;;4264290;33;317632;-83
2023/11/06 04:47:14;;;;;;;17.40;5.43;;;;;;;;;;4266953;33;317652;-79
2023/11/06 04:49:40;;;;;;;14.47;4.73;;;;;;;;;;4281080;33;318595;-84
2023/11/06 04:52:07;;;;;;;10.73;5.13;;;;;;;;;;4274876;33;418792;-84
2023/11/06 04:54:34;;;;;;;10.90;4.43;;;;;;;;;;4288836;33;318382;-85
2023/11/06 04:57:00;;;;;;;6.53;4.00;;;;;;;;;;4272010;33;318975;-85
2023/11/06 04:59:29;;;;;;;9.37;3.90;;;;;;;;;;4287864;33;317616;-85
2023/11/06 05:01:55;;;;;;;6.00;3.53;;;;;;;;;;4278533;33;317219;-82
2023/11/06 05:04:22;;;;;;;8.17;3.90;;;;;;;;;;4287131;33;317525;-82
2023/11/06 05:06:49;;;;;;;10.47;4.90;;;;;;;;;;4271890;33;335284;-82
2023/11/06 05:09:16;;;;;;;12.27;5.20;;;;;;;;;;4288479;33;318427;-81
2023/11/06 05:11:44;;;;;;;41.40;26.30;;;;;;;;;;4269306;33;318011;-85
2023/11/06 05:14:11;;;;;;;29.47;16.80;;;;;;;;;;4285240;33;319776;-82
2023/11/06 05:16:39;;;;;;;23.83;15.43;;;;;;;;;;4280651;33;319325;-81
2023/11/06 05:19:06;;;;;;;15.57;10.10;;;;;;;;;;4257275;33;320139;-83
2023/11/06 05:21:32;;;;;;;11.07;7.53;;;;;;;;;;4274190;33;319382;-84
2023/11/06 05:23:59;;;;;;;18.77;8.43;;;;;;;;;;4270878;33;319051;-83
2023/11/06 05:26:26;;;;;;;17.53;8.80;;;;;;;;;;4288240;33;318343;-82
2023/11/06 05:28:53;;;;;;;26.13;10.90;;;;;;;;;;4271342;33;318690;-82
2023/11/06 05:31:19;;;;;;;12.20;8.10;;;;;;;;;;4285442;33;318833;-83
2023/11/06 05:33:48;;;;;;;20.40;11.07;;;;;;;;;;4262168;33;317839;-81
2023/11/06 05:36:15;;;;;;;25.47;15.33;;;;;;;;;;4276526;33;319395;-83
2023/11/06 05:38:41;;;;;;;23.83;12.77;;;;;;;;;;4286589;33;320353;-85
2023/11/06 05:41:11;;;;;;;24.37;10.97;;;;;;;;;;4266244;33;420428;-81
2023/11/06 05:43:38;;;;;;;23.47;12.03;;;;;;;;;;4287592;33;319884;-82
2023/11/06 05:46:06;;;;;;;18.57;11.67;;;;;;;;;;4275698;33;318981;-81
2023/11/06 05:48:33;;;;;;;33.60;11.57;;;;;;;;;;4287229;33;319967;-85
2023/11/06 05:51:01;;;;;;;17.53;10.97;;;;;;;;;;4270234;33;319428;-82
2023/11/06 05:53:28;;;;;;;19.97;10.20;;;;;;;;;;4287962;33;319682;-82
2023/11/06 05:55:55;;;;;;;11.63;6.60;;;;;;;;;;4277455;33;319526;-81
2023/11/06 05:58:21;;;;;;;16.20;7.93;;;;;;;;;;4287755;33;318696;-81
2023/11/06 06:00:48;;;;;;;14.77;8.43;;;;;;;;;;4268355;33;317713;-80
2023/11/06 06:03:16;;;;;;;19.90;10.53;;;;;;;;;;4286024;33;318845;-81
2023/11/06 06:05:43;;;;;;;21.77;10.93;;;;;;;;;;4280008;33;329412;-85
2023/11/06 06:08:12;;;;;;;25.27;12.00;;;;;;;;;;4291831;33;319791;-83
2023/11/06 06:10:39;;;;;;;21.87;12.57;;;;;;;;;;4293632;33;319437;-82
2023/11/06 06:13:06;;;;;;;25.27;15.10;;;;;;;;;;4283486;33;318898;-83
2023/11/06 06:15:33;;;;;;;47.63;23.77;;;;;;;;;;4294884;33;318552;-85
2023/11/06 06:18:01;;;;;;;33.70;17.67;;;;;;;;;;4276121;33;319884;-86
2023/11/06 06:20:28;;;;;;;30.00;18.47;;;;;;;;;;4286218;33;319416;-85
2023/11/06 06:22:55;;;;;;;37.23;23.40;;;;;;;;;;4269218;33;319413;-84
2023/11/06 06:25:23;;;;;;;42.23;21.57;;;;;;;;;;4285685;33;318773;-86
2023/11/06 06:27:50;;;;;;;40.73;23.90;;;;;;;;;;4275354;33;319815;-84
2023/11/06 06:30:17;;;;;;;27.60;17.80;;;;;;;;;;4286104;33;319983;-86
2023/11/06 06:32:43;;;;;;;23.80;13.43;;;;;;;;;;4275732;33;319370;-87
2023/11/06 06:35:10;;;;;;;20.30;12.00;;;;;;;;;;4278669;33;353227;-85
2023/11/06 06:37:37;;;;;;;16.80;10.37;;;;;;;;;;4288100;33;319501;-86
2023/11/06 06:40:06;;;;;;;18.17;12.03;;;;;;;;;;4276229;33;319557;-84
2023/11/06 06:42:35;;;;;;;23.67;12.63;;;;;;;;;;4286595;33;319444;-85
2023/11/06 06:45:02;;;;;;;22.10;10.97;;;;;;;;;;4268227;33;319810;-86
2023/11/06 06:47:28;;;;;;;22.50;10.70;;;;;;;;;;4286405;33;319594;-86
2023/11/06 06:49:55;;;;;;;22.70;11.43;;;;;;;;;;4275235;33;319546;-87
2023/11/06 06:52:22;;;;;;;19.60;9.93;;;;;;;;;;4286021;33;318728;-89
2023/11/06 06:54:49;;;;;;;21.83;11.93;;;;;;;;;;4271554;33;318123;-87
2023/11/06 06:57:16;;;;;;;22.33;10.43;;;;;;;;;;4274314;33;319419;-87
2023/11/06 06:59:44;;;;;;;20.43;10.43;;;;;;;;;;4279522;33;319601;-86
2023/11/06 07:02:11;;;;;;;16.70;8.63;;;;;;;;;;4285609;33;319126;-84
2023/11/06 07:04:38;;;;;;;11.87;6.90;;;;;;;;;;4284617;33;317970;-85
2023/11/06 07:07:06;;;;;;;14.00;7.30;;;;;;;;;;4270534;33;318354;-85
2023/11/06 07:09:33;;;;;;;17.70;6.47;;;;;;;;;;4284969;33;318272;-84
2023/11/06 07:12:00;;;;;;;14.00;6.37;;;;;;;;;;4275691;33;318357;-83
2023/11/06 07:14:28;;;;;;;10.85;5.90;;;;;;;;;;4284496;33;318252;-85
2023/11/06 07:16:58;;;;;;;13.80;7.47;;;;;;;;;;4264757;33;318225;-85
2023/11/06 07:19:25;;;;;;;18.97;9.67;;;;;;;;;;4292659;33;318656;-84
2023/11/06 07:21:52;;;;;;;21.87;10.03;;;;;;;;;;4264760;33;317839;-84
2023/11/06 07:24:21;;;;;;;15.70;8.13;;;;;;;;;;4276106;33;319564;-86
2023/11/06 07:26:49;;;;;;;16.27;7.90;;;;;;;;;;4253917;33;317939;-85
2023/11/06 07:29:15;;;;;;;14.83;7.20;;;;;;;;;;4271219;33;318677;-86
2023/11/06 07:31:43;;;;;;;15.93;7.07;;;;;;;;;;4268585;33;317712;-85
2023/11/06 07:34:11;;;;;;;17.40;6.57;;;;;;;;;;4274908;33;317581;-86
2023/11/06 07:36:38;;;;;;;18.83;6.80;;;;;;;;;;4284796;33;340581;-84
2023/11/06 07:39:07;;;;;;;12.67;6.40;;;;;;;;;;4268717;33;318294;-86
2023/11/06 07:41:34;;;;;;;22.37;9.10;;;;;;;;;;4284641;33;318377;-83
2023/11/06 07:44:00;;;;;;;20.90;7.65;;;;;;;;;;4275069;33;318701;-86
2023/11/06 07:46:27;;;;;;;23.13;9.13;;;;;;;;;;4285031;33;317877;-86
2023/11/06 07:48:54;;;;;;;15.68;6.82;;;;;;;;;;4267465;33;318495;-86
2023/11/06 07:51:22;;;;;;;10.57;7.47;;;;;;;;;;4278147;33;317686;-84
2023/11/06 07:53:49;;;;;;;18.77;7.37;;;;;;;;;;4272362;33;354344;-87
2023/11/06 07:56:18;;;;;;;23.47;7.37;;;;;;;;;;4284746;33;355468;-84
2023/11/06 07:58:46;;;;;;;16.43;8.00;;;;;;;;;;4273505;33;346493;-86
2023/11/06 08:01:15;;;;;;;18.80;7.57;;;;;;;;;;4283637;33;318044;-87
2023/11/06 08:03:41;;;;;;;12.55;7.45;;;;;;;;;;4282228;33;318325;-85
2023/11/06 08:06:08;;;;;;;15.45;8.15;;;;;;;;;;4271683;33;418494;-85
2023/11/06 08:08:36;;;;;;;15.95;6.97;;;;;;;;;;4283958;33;318449;-86
2023/11/06 08:11:03;;;;;;;15.32;6.45;;;;;;;;;;4266969;33;318543;-85
2023/11/06 08:13:30;;;;;;;20.20;7.60;;;;;;;;;;4283703;33;318396;-83
2023/11/06 08:15:57;;;;;;;11.25;6.72;;;;;;;;;;4273739;33;348235;-84
2023/11/06 08:18:25;;;;;;;12.07;7.85;;;;;;;;;;4281509;33;318272;-84
2023/11/06 08:20:52;;;;;;;14.33;7.50;;;;;;;;;;4266298;33;342679;-84
2023/11/06 08:23:19;;;;;;;16.17;7.25;;;;;;;;;;4277584;33;318740;-85
2023/11/06 08:25:48;;;;;;;13.20;6.47;;;;;;;;;;4221485;33;318502;-86
2023/11/06 08:28:15;;;;;;;16.45;6.65;;;;;;;;;;4285156;33;318741;-84
2023/11/06 08:30:42;;;;;;;13.35;4.87;;;;;;;;;;4285905;33;317703;-86
2023/11/06 08:33:09;;;;;;;13.18;4.82;;;;;;;;;;4267506;33;419121;-86
2023/11/06 08:35:35;;;;;;;20.08;4.72;;;;;;;;;;4286695;33;318258;-85
2023/11/06 08:38:05;;;;;;;13.68;5.35;;;;;;;;;;4275977;33;347535;-85
2023/11/06 08:40:32;;;;;;;13.13;4.93;;;;;;;;;;4284989;33;318289;-84
2023/11/06 08:43:00;;;;;;;11.67;5.23;;;;;;;;;;4268697;33;319450;-86
2023/11/06 08:45:28;;;;;;;9.60;4.30;;;;;;;;;;4287691;33;318514;-87
2023/11/06 08:47:54;;;;;;;11.13;5.03;;;;;;;;;;4262864;33;316883;-87
2023/11/06 08:50:21;;;;;;;11.80;4.30;;;;;;;;;;4283153;33;318803;-87
2023/11/06 08:52:48;;;;;;;13.52;4.90;;;;;;;;;;4262802;33;319446;-86
2023/11/06 08:55:15;;;;;;;11.18;4.40;;;;;;;;;;4268857;33;317645;-85
2023/11/06 08:57:42;;;;;;;13.07;4.43;;;;;;;;;;4272969;33;318208;-87
2023/11/06 09:00:11;;;;;;;11.18;3.30;;;;;;;;;;4273996;33;417596;-86
2023/11/06 09:02:38;;;;;;;10.70;3.42;;;;;;;;;;4286958;33;318236;-86
2023/11/06 09:05:06;;;;;;;10.02;2.70;;;;;;;;;;4269546;33;318550;-85
2023/11/06 09:07:32;;;;;;;6.82;2.33;;;;;;;;;;4282979;33;319070;-86
2023/11/06 09:09:59;;;;;;;7.23;2.77;;;;;;;;;;4267015;33;354812;-86
2023/11/06 09:12:26;;;;;;;5.70;2.20;;;;;;;;;;4276524;33;316747;-86
2023/11/06 09:14:53;;;;;;;10.77;2.70;;;;;;;;;;4265393;33;316349;-85
2023/11/06 09:17:21;;;;;;;6.90;2.47;;;;;;;;;;4282690;33;318473;-86
2023/11/06 09:19:48;;;;;;;9.80;2.70;;;;;;;;;;4277999;33;317471;-86
2023/11/06 09:22:15;;;;;;;6.62;2.60;;;;;;;;;;4280735;33;317113;-87
2023/11/06 09:24:42;;;;;;;6.50;2.62;;;;;;;;;;4279960;33;317068;-87
2023/11/06 09:27:08;;;;;;;5.62;2.55;;;;;;;;;;4252656;33;416360;-88
2023/11/06 09:29:35;;;;;;;9.85;3.15;;;;;;;;;;4278934;33;349319;-86
2023/11/06 09:32:02;;;;;;;10.07;2.62;;;;;;;;;;4276131;33;316581;-84
2023/11/06 09:34:30;;;;;;;11.68;2.47;;;;;;;;;;4285841;33;317733;-84
2023/11/06 09:36:57;;;;;;;9.27;2.17;;;;;;;;;;4269186;33;318276;-86
2023/11/06 09:39:24;;;;;;;12.27;2.58;;;;;;;;;;4282524;33;359399;-84
2023/11/06 09:41:52;;;;;;;7.25;1.80;;;;;;;;;;4275910;33;318274;-85
2023/11/06 09:44:19;;;;;;;9.55;2.37;;;;;;;;;;4284845;33;316551;-85
2023/11/06 09:46:47;;;;;;;9.50;2.47;;;;;;;;;;4276914;33;317621;-84
2023/11/06 09:49:17;;;;;;;5.68;1.83;;;;;;;;;;4284377;33;317403;-87
2023/11/06 09:51:52;;;;;;;8.82;1.98;;;;;;;;;;4277290;33;317556;-85
2023/11/06 09:54:21;;;;;;;15.57;2.75;;;;;;;;;;4286876;33;317719;-84
2023/11/06 09:56:48;;;;;;;5.12;2.28;;;;;;;;;;4262917;33;323060;-84
2023/11/06 09:59:18;;;;;;;7.07;2.35;;;;;;;;;;4283733;33;317214;-87
2023/11/06 10:01:45;;;;;;;9.10;2.03;;;;;;;;;;4277638;33;316744;-87
2023/11/06 10:04:12;;;;;;;7.22;2.50;;;;;;;;;;4283243;33;317829;-87
2023/11/06 10:06:38;;;;;;;6.05;1.65;;;;;;;;;;4285853;33;317170;-87
2023/11/06 10:09:25;;;;;;;9.13;2.35;;;;;;;;;;4268887;33;317832;-86
2023/11/06 10:11:55;;;;;;;4.53;1.35;;;;;;;;;;4276311;33;317664;-88
2023/11/06 10:14:36;;;;;;;12.88;2.33;;;;;;;;;;4274458;33;316652;-88
2023/11/06 10:17:03;;;;;;;15.32;2.33;;;;;;;;;;4264853;33;318167;-87
2023/11/06 10:19:30;;;;;;;8.68;1.87;;;;;;;;;;4273142;33;318238;-87
2023/11/06 10:21:57;;;;;;;5.18;1.60;;;;;;;;;;4276484;33;317616;-88
2023/11/06 10:24:27;;;;;;;8.98;2.17;;;;;;;;;;4288810;33;317395;-87
2023/11/06 10:26:54;;;;;;;8.85;2.40;;;;;;;;;;4281386;33;316959;-88
2023/11/06 10:29:21;;;;;;;7.20;1.55;;;;;;;;;;4297477;33;316611;-86
2023/11/06 10:31:49;;;;;;;7.18;2.22;;;;;;;;;;4281048;33;317697;-88
2023/11/06 10:34:26;;;;;;;8.52;1.70;;;;;;;;;;4293253;33;317105;-88
2023/11/06 10:37:05;;;;;;;6.95;2.15;;;;;;;;;;4269921;33;317277;-88
2023/11/06 10:39:33;;;;;;;7.65;2.10;;;;;;;;;;4286301;33;316574;-86
2023/11/06 10:42:04;;;;;;;6.12;2.05;;;;;;;;;;4276071;33;317279;-88
2023/11/06 10:44:36;;;;;;;11.25;1.67;;;;;;;;;;4287086;33;317140;-88
2023/11/06 10:47:08;;;;;;;7.12;2.15;;;;;;;;;;4270420;33;318116;-88
2023/11/06 10:49:37;;;;;;;11.18;2.15;;;;;;;;;;4283118;33;317230;-89
2023/11/06 10:52:06;;;;;;;3.20;1.40;;;;;;;;;;4272412;33;318166;-91
2023/11/06 10:54:35;;;;;;;6.53;1.60;;;;;;;;;;4285792;33;316628;-90
2023/11/06 10:57:02;;;;;;;8.77;2.25;;;;;;;;;;4267353;33;317320;-91
2023/11/06 10:59:32;;;;;;;7.85;1.50;;;;;;;;;;4285424;33;316676;-88
2023/11/06 11:01:59;;;;;;;5.37;1.27;;;;;;;;;;4272403;33;317287;-87
2023/11/06 11:04:28;;;;;;;13.48;2.05;;;;;;;;;;4284983;33;317085;-87
2023/11/06 11:06:56;;;;;;;8.48;2.45;;;;;;;;;;4267962;33;318647;-87
2023/11/06 11:09:24;;;;;;;6.03;1.73;;;;;;;;;;4282736;33;317369;-91
2023/11/06 11:11:52;;;;;;;6.00;1.75;;;;;;;;;;4268020;33;317663;-87
2023/11/06 11:14:19;;;;;;;6.90;2.28;;;;;;;;;;4283481;33;317826;-88
2023/11/06 11:16:50;;;;;;;3.78;1.48;;;;;;;;;;4272723;33;317341;-90
2023/11/06 11:19:22;;;;;;;5.93;1.80;;;;;;;;;;4275431;33;317420;-92
2023/11/06 11:22:06;;;;;;;10.67;1.50;;;;;;;;;;4275242;33;334429;-88
2023/11/06 11:24:50;;;;;;;5.65;1.37;;;;;;;;;;4295254;33;317897;-85
2023/11/06 11:27:21;;;;;;;4.03;1.20;;;;;;;;;;4279468;33;418040;-88
2023/11/06 11:30:12;;;;;;;3.72;1.77;;;;;;;;;;4275323;33;353709;-88
2023/11/06 11:32:49;;;;;;;5.78;1.45;;;;;;;;;;4295063;33;347797;-88
2023/11/06 11:36:00;;;;;;;7.95;1.67;;;;;;;;;;4293286;33;417156;-84
2023/11/06 11:38:35;;;;;;;4.82;1.50;;;;;;;;;;4281638;33;418575;-88
2023/11/06 11:41:09;;;;;;;7.28;1.30;;;;;;;;;;4277712;33;316918;-89
2023/11/06 11:43:47;;;;;;;3.75;1.05;;;;;;;;;;4291595;33;317031;-90
2023/11/06 11:46:57;;;;;;;10.77;1.92;;;;;;;;;;4275846;33;417375;-90
2023/11/06 11:49:41;;;;;;;11.02;2.35;;;;;;;;;;4273090;33;418509;-85
2023/11/06 11:52:08;;;;;;;3.92;1.48;;;;;;;;;;4270094;33;420009;-85
2023/11/06 11:54:37;;;;;;;10.05;1.73;;;;;;;;;;4283639;33;317140;-81
2023/11/06 11:57:05;;;;;;;7.28;1.58;;;;;;;;;;4256724;33;318794;-81
2023/11/06 11:59:41;;;;;;;4.80;1.10;;;;;;;;;;4279208;33;316531;-82
2023/11/06 12:02:09;;;;;;;6.15;1.65;;;;;;;;;;4275176;33;330275;-82
2023/11/06 12:04:36;;;;;;;6.70;1.60;;;;;;;;;;4286663;33;317528;-83
2023/11/06 12:07:05;;;;;;;3.72;1.40;;;;;;;;;;4268516;33;317438;-82
2023/11/06 12:09:47;;;;;;;8.20;2.28;;;;;;;;;;4286880;33;316520;-84
2023/11/06 12:12:19;;;;;;;8.35;1.90;;;;;;;;;;4275521;33;417906;-82
2023/11/06 12:14:47;;;;;;;7.90;1.33;;;;;;;;;;4276332;33;394338;-83
2023/11/06 12:17:25;;;;;;;5.32;1.92;;;;;;;;;;4285750;33;317270;-83
2023/11/06 12:19:51;;;;;;;3.95;1.50;;;;;;;;;;4262611;33;317596;-83
2023/11/06 12:22:18;;;;;;;5.55;1.02;;;;;;;;;;4273646;33;317407;-82
2023/11/06 12:24:50;;;;;;;5.90;1.80;;;;;;;;;;4277954;33;317404;-83
2023/11/06 12:27:17;;;;;;;6.87;2.40;;;;;;;;;;4285830;33;317207;-83
2023/11/06 12:29:44;;;;;;;5.15;1.75;;;;;;;;;;4278247;33;317263;-85
2023/11/06 12:32:23;;;;;;;10.68;1.92;;;;;;;;;;4287857;33;316796;-84
2023/11/06 12:35:06;;;;;;;9.75;2.40;;;;;;;;;;4270644;33;318569;-84
2023/11/06 12:37:50;;;;;;;5.22;2.17;;;;;;;;;;4287743;33;317636;-82
2023/11/06 12:40:17;;;;;;;5.45;1.85;;;;;;;;;;4272353;33;418033;-80
2023/11/06 12:42:45;;;;;;;7.70;1.90;;;;;;;;;;4261546;33;317129;-85
2023/11/06 12:45:29;;;;;;;7.20;2.03;;;;;;;;;;4261608;33;317243;-87
2023/11/06 12:47:58;;;;;;;6.68;2.50;;;;;;;;;;4275668;33;317027;-87
2023/11/06 12:50:26;;;;;;;5.93;1.50;;;;;;;;;;4282857;33;317616;-86
2023/11/06 12:52:53;;;;;;;5.93;1.58;;;;;;;;;;4259419;33;317249;-80
2023/11/06 12:55:19;;;;;;;6.20;1.75;;;;;;;;;;4286084;33;317360;-82
2023/11/06 12:57:47;;;;;;;5.87;1.80;;;;;;;;;;4267582;33;317165;-82
2023/11/06 13:00:21;;;;;;;4.90;1.60;;;;;;;;;;4270812;33;344153;-80
2023/11/06 13:02:50;;;;;;;3.17;1.45;;;;;;;;;;4259092;33;316538;-80
2023/11/06 13:05:20;;;;;;;6.53;1.55;;;;;;;;;;4275126;33;317430;-80
2023/11/06 13:07:51;;;;;;;7.35;2.03;;;;;;;;;;4273175;33;355553;-81
2023/11/06 13:10:18;;;;;;;6.28;1.40;;;;;;;;;;4286454;33;317820;-81
2023/11/06 13:12:45;;;;;;;5.20;1.67;;;;;;;;;;4276912;33;317103;-82
2023/11/06 13:15:12;;;;;;;9.80;3.00;;;;;;;;;;4282051;33;316581;-83
2023/11/06 13:17:39;;;;;;;10.85;4.12;;;;;;;;;;4299689;33;317520;-87
2023/11/06 13:20:24;;;;;;;13.80;5.80;;;;;;;;;;4288997;33;318022;-87
2023/11/06 13:22:55;;;;;;;12.20;4.45;;;;;;;;;;4277756;33;318125;-82
2023/11/06 13:25:23;;;;;;;7.35;2.50;;;;;;;;;;4284678;33;318198;-86
2023/11/06 13:27:51;;;;;;;5.65;1.90;;;;;;;;;;4277079;33;317232;-80
2023/11/06 13:30:19;;;;;;;8.73;2.03;;;;;;;;;;4286252;33;317183;-80
2023/11/06 13:32:46;;;;;;;7.57;1.65;;;;;;;;;;4275740;33;317192;-80
2023/11/06 13:35:13;;;;;;;7.60;1.92;;;;;;;;;;4283419;33;345624;-81
2023/11/06 13:37:40;;;;;;;7.68;2.35;;;;;;;;;;4296327;33;317359;-81
2023/11/06 13:40:18;;;;;;;9.15;2.05;;;;;;;;;;4276715;33;317552;-83
2023/11/06 13:42:45;;;;;;;9.05;2.40;;;;;;;;;;4275897;33;317134;-82
2023/11/06 13:45:12;;;;;;;14.98;2.42;;;;;;;;;;4284297;33;317676;-81
2023/11/06 13:47:39;;;;;;;4.20;1.95;;;;;;;;;;4286149;33;318005;-80
2023/11/06 13:50:21;;;;;;;9.65;2.28;;;;;;;;;;4276905;33;317474;-84
2023/11/06 13:52:50;;;;;;;11.98;1.85;;;;;;;;;;4271722;33;321104;-84
2023/11/06 13:55:30;;;;;;;7.25;1.85;;;;;;;;;;4284271;33;318477;-83
2023/11/06 13:57:57;;;;;;;11.07;2.05;;;;;;;;;;4268825;33;317791;-88
2023/11/06 14:00:32;;;;;;;5.75;2.08;;;;;;;;;;4285251;33;318189;-85
2023/11/06 14:03:02;;;;;;;6.82;2.28;;;;;;;;;;4262784;33;317699;-89
2023/11/06 14:05:29;;;;;;;7.53;2.25;;;;;;;;;;4280096;33;317292;-85
2023/11/06 14:07:59;;;;;;;5.05;1.73;;;;;;;;;;4262923;33;317633;-86
2023/11/06 14:10:31;;;;;;;5.15;2.20;;;;;;;;;;4282512;33;316454;-87
2023/11/06 14:12:58;;;;;;;7.22;2.30;;;;;;;;;;4254741;33;317216;-81
2023/11/06 14:15:25;;;;;;;7.35;1.73;;;;;;;;;;4273174;33;317569;-81
2023/11/06 14:17:53;;;;;;;8.27;2.15;;;;;;;;;;4276198;33;316674;-83
2023/11/06 14:20:21;;;;;;;7.35;2.37;;;;;;;;;;4285518;33;316895;-81
2023/11/06 14:22:47;;;;;;;7.00;2.53;;;;;;;;;;4277054;33;317543;-81
2023/11/06 14:25:14;;;;;;;8.65;2.78;;;;;;;;;;4287131;33;316903;-81
2023/11/06 14:27:43;;;;;;;17.85;2.50;;;;;;;;;;4271886;33;317466;-81
2023/11/06 14:30:13;;;;;;;8.25;3.22;;;;;;;;;;4272251;33;417420;-80
2023/11/06 14:32:39;;;;;;;10.55;2.58;;;;;;;;;;4286300;33;317345;-82